createdAt,value
2023-05-17T00:00:53.326Z,98724.86
2023-05-17T00:01:58.667Z,98723.52
2023-05-17T00:03:04.027Z,98722.27
2023-05-17T00:04:09.617Z,98719.5
2023-05-17T00:05:15.141Z,98730.11
2023-05-17T00:06:20.598Z,98726.09
2023-05-17T00:07:25.960Z,98731.38
2023-05-17T00:08:31.248Z,98731.98
2023-05-17T00:09:36.597Z,98729.3
2023-05-17T00:10:41.893Z,98730.33
2023-05-17T00:11:47.215Z,98724.67
2023-05-17T00:12:52.473Z,98731.05
2023-05-17T00:13:57.750Z,98719.09
2023-05-17T00:15:03.046Z,98716.91
2023-05-17T00:16:08.331Z,98721.45
2023-05-17T00:17:13.697Z,98717.15
2023-05-17T00:18:19.390Z,98720.03
2023-05-17T00:19:25.039Z,98721.37
2023-05-17T00:20:30.619Z,98720.33
2023-05-17T00:21:35.911Z,98724.55
2023-05-17T00:22:41.206Z,98716.91
2023-05-17T00:23:46.493Z,98717.34
2023-05-17T00:24:51.794Z,98718.49
2023-05-17T00:25:57.074Z,98723.61
2023-05-17T00:27:02.366Z,98716.02
2023-05-17T00:28:07.740Z,98722.39
2023-05-17T00:29:13.064Z,98715.8
2023-05-17T00:30:18.370Z,98721.8
2023-05-17T00:31:23.643Z,98725.2
2023-05-17T00:32:29.061Z,98724.77
2023-05-17T00:33:34.440Z,98724.77
2023-05-17T00:34:39.825Z,98717.77
2023-05-17T00:35:45.173Z,98720.52
2023-05-17T00:36:50.451Z,98714.67
2023-05-17T00:37:55.760Z,98709.81
2023-05-17T00:39:01.134Z,98714.97
2023-05-17T00:40:06.453Z,98715.61
2023-05-17T00:41:11.713Z,98719.19
2023-05-17T00:42:17.075Z,98720.33
2023-05-17T00:43:22.357Z,98723.02
2023-05-17T00:44:27.681Z,98716.11
2023-05-17T00:45:33.096Z,98718.58
2023-05-17T00:46:38.449Z,98709.52
2023-05-17T00:47:43.879Z,98715.9
2023-05-17T00:48:49.403Z,98711.88
2023-05-17T00:49:54.787Z,98713.74
2023-05-17T00:51:00.123Z,98715.49
2023-05-17T00:52:05.450Z,98715.49
2023-05-17T00:53:10.751Z,98713.42
2023-05-17T00:54:16.038Z,98718.58
2023-05-17T00:55:21.345Z,98715.09
2023-05-17T00:56:26.681Z,98722.6
2023-05-17T00:57:31.999Z,98720.13
2023-05-17T00:58:37.362Z,98729.84
2023-05-17T00:59:42.689Z,98733.86
2023-05-17T01:00:48.019Z,98737.16
2023-05-17T01:01:53.320Z,98738.42
2023-05-17T01:02:58.837Z,98736.35
2023-05-17T01:04:04.559Z,98728.09
2023-05-17T01:05:10.262Z,98725.91
2023-05-17T01:06:15.574Z,98728.83
2023-05-17T01:07:20.910Z,98735.73
2023-05-17T01:08:26.241Z,98733.45
2023-05-17T01:09:31.529Z,98727.48
2023-05-17T01:10:36.875Z,98732.01
2023-05-17T01:11:42.213Z,98736.76
2023-05-17T01:12:47.526Z,98731.31
2023-05-17T01:13:52.860Z,98740.99
2023-05-17T01:14:58.179Z,98744.81
2023-05-17T01:16:03.472Z,98735.13
2023-05-17T01:17:08.812Z,98735.13
2023-05-17T01:18:14.301Z,98742.13
2023-05-17T01:19:19.952Z,98734.28
2023-05-17T01:20:25.496Z,98742.25
2023-05-17T01:21:30.969Z,98740.38
2023-05-17T01:22:36.332Z,98735.75
2023-05-17T01:23:41.651Z,98740.06
2023-05-17T01:24:46.968Z,98739.56
2023-05-17T01:25:52.292Z,98737.28
2023-05-17T01:26:57.578Z,98731.6
2023-05-17T01:28:02.938Z,98733.35
2023-05-17T01:29:08.249Z,98738.02
2023-05-17T01:30:16.276Z,98736.98
2023-05-17T01:31:21.589Z,98735.84
2023-05-17T01:32:27.006Z,98735.84
2023-05-17T01:33:32.786Z,98733.06
2023-05-17T01:34:38.278Z,98732.53
2023-05-17T01:35:43.619Z,98725.23
2023-05-17T01:36:48.908Z,98718.52
2023-05-17T01:37:54.306Z,98720.99
2023-05-17T01:38:59.647Z,98719.25
2023-05-17T01:40:04.981Z,98720.99
2023-05-17T01:41:10.289Z,98717.17
2023-05-17T01:42:15.589Z,98722.73
2023-05-17T01:43:20.951Z,98725.02
2023-05-17T01:44:26.298Z,98725.55
2023-05-17T01:45:31.851Z,98723.27
2023-05-17T01:46:37.169Z,98723.89
2023-05-17T01:47:42.558Z,98722.42
2023-05-17T01:48:48.007Z,98729.13
2023-05-17T01:49:53.479Z,98728.72
2023-05-17T01:50:58.780Z,98730.59
2023-05-17T01:52:04.110Z,98734.21
2023-05-17T01:53:09.444Z,98733.27
2023-05-17T01:54:14.791Z,98737.51
2023-05-17T01:55:20.188Z,98741.2
2023-05-17T01:56:25.483Z,98743.89
2023-05-17T01:57:30.803Z,98750.72
2023-05-17T01:58:36.123Z,98751.65
2023-05-17T01:59:41.478Z,98748.16
2023-05-17T02:00:46.825Z,98750.31
2023-05-17T02:01:52.142Z,98748.44
2023-05-17T02:02:57.709Z,98754.86
2023-05-17T02:04:03.259Z,98755.14
2023-05-17T02:05:08.871Z,98760.11
2023-05-17T02:06:14.451Z,98761.56
2023-05-17T02:07:19.767Z,98762.91
2023-05-17T02:08:25.132Z,98768.27
2023-05-17T02:09:33.465Z,98766.41
2023-05-17T02:10:38.779Z,98767.34
2023-05-17T02:11:44.102Z,98770.43
2023-05-17T02:12:49.381Z,98770.11
2023-05-17T02:13:54.707Z,98768.16
2023-05-17T02:14:59.992Z,98772.7
2023-05-17T02:16:05.406Z,98769.17
2023-05-17T02:17:10.787Z,98777.55
2023-05-17T02:18:16.289Z,98777.75
2023-05-17T02:19:21.929Z,98772.3
2023-05-17T02:20:27.303Z,98775.88
2023-05-17T02:21:32.634Z,98779.41
2023-05-17T02:22:37.940Z,98775.88
2023-05-17T02:23:43.262Z,98779.5
2023-05-17T02:24:48.546Z,98779.74
2023-05-17T02:25:53.859Z,98782.19
2023-05-17T02:26:59.272Z,98779
2023-05-17T02:28:04.614Z,98780.84
2023-05-17T02:29:09.990Z,98780.03
2023-05-17T02:30:17.966Z,98774.55
2023-05-17T02:31:23.704Z,98766.2
2023-05-17T02:32:29.258Z,98764.34
2023-05-17T02:33:34.912Z,98775.59
2023-05-17T02:34:40.367Z,98769.42
2023-05-17T02:35:45.658Z,98770.56
2023-05-17T02:36:51.003Z,98773.84
2023-05-17T02:37:56.302Z,98768.89
2023-05-17T02:39:01.593Z,98768.89
2023-05-17T02:40:06.884Z,98762.8
2023-05-17T02:41:12.208Z,98760.44
2023-05-17T02:42:17.484Z,98765.89
2023-05-17T02:43:22.801Z,98767.14
2023-05-17T02:44:28.103Z,98768.28
2023-05-17T02:45:33.405Z,98766.33
2023-05-17T02:46:39.968Z,98771.57
2023-05-17T02:47:45.400Z,98767.14
2023-05-17T02:48:50.856Z,98764.35
2023-05-17T02:49:56.148Z,98765.89
2023-05-17T02:51:01.441Z,98763.64
2023-05-17T02:52:06.754Z,98766.53
2023-05-17T02:53:12.067Z,98772.09
2023-05-17T02:54:17.380Z,98764.55
2023-05-17T02:55:22.708Z,98754.55
2023-05-17T02:56:27.998Z,98757.55
2023-05-17T02:57:33.382Z,98755.8
2023-05-17T02:58:38.708Z,98751.57
2023-05-17T02:59:44.138Z,98746.91
2023-05-17T03:00:49.594Z,98743.61
2023-05-17T03:01:54.947Z,98741.98
2023-05-17T03:03:00.499Z,98739.71
2023-05-17T03:04:06.463Z,98750.23
2023-05-17T03:05:12.057Z,98747.95
2023-05-17T03:06:17.369Z,98751.98
2023-05-17T03:07:22.684Z,98760.44
2023-05-17T03:08:28.003Z,98758.69
2023-05-17T03:09:33.374Z,98758.77
2023-05-17T03:10:38.721Z,98764.46
2023-05-17T03:11:44.077Z,98765.39
2023-05-17T03:12:49.492Z,98772.09
2023-05-17T03:13:54.810Z,98771.91
2023-05-17T03:15:00.121Z,98775.8
2023-05-17T03:16:05.430Z,98772.19
2023-05-17T03:17:10.768Z,98773.24
2023-05-17T03:18:16.527Z,98771.5
2023-05-17T03:19:22.300Z,98772.09
2023-05-17T03:20:27.861Z,98769.42
2023-05-17T03:21:33.204Z,98765.48
2023-05-17T03:22:38.613Z,98766.01
2023-05-17T03:23:43.947Z,98759.92
2023-05-17T03:24:49.249Z,98768.57
2023-05-17T03:25:54.634Z,98763.33
2023-05-17T03:26:59.932Z,98764.55
2023-05-17T03:28:05.238Z,98766.82
2023-05-17T03:29:10.567Z,98773.66
2023-05-17T03:30:15.900Z,98775.92
2023-05-17T03:31:21.339Z,98770.84
2023-05-17T03:32:26.711Z,98770.24
2023-05-17T03:33:32.344Z,98780.36
2023-05-17T03:34:37.819Z,98778.61
2023-05-17T03:35:43.170Z,98773.05
2023-05-17T03:36:48.503Z,98778.7
2023-05-17T03:37:53.806Z,98776.86
2023-05-17T03:38:59.078Z,98778.61
2023-05-17T03:40:04.442Z,98777.36
2023-05-17T03:41:09.745Z,98779.22
2023-05-17T03:42:15.081Z,98782.23
2023-05-17T03:43:20.499Z,98778
2023-05-17T03:44:25.804Z,98780.69
2023-05-17T03:45:31.271Z,98785.31
2023-05-17T03:46:36.562Z,98792.95
2023-05-17T03:47:41.955Z,98793.36
2023-05-17T03:48:47.406Z,98796.45
2023-05-17T03:49:52.875Z,98791.17
2023-05-17T03:50:58.197Z,98793.86
2023-05-17T03:52:03.641Z,98800.48
2023-05-17T03:53:08.958Z,98799.22
2023-05-17T03:54:14.285Z,98801.7
2023-05-17T03:55:19.609Z,98803.37
2023-05-17T03:56:24.941Z,98803.17
2023-05-17T03:57:30.290Z,98806.87
2023-05-17T03:58:35.644Z,98817.1
2023-05-17T03:59:41.041Z,98818.53
2023-05-17T04:00:46.348Z,98820.28
2023-05-17T04:01:51.740Z,98821.02
2023-05-17T04:02:57.174Z,98834.54
2023-05-17T04:04:02.784Z,98831.86
2023-05-17T04:05:08.275Z,98830.52
2023-05-17T04:06:13.631Z,98836.38
2023-05-17T04:07:19.004Z,98839.06
2023-05-17T04:08:24.396Z,98835.77
2023-05-17T04:09:29.779Z,98837.02
2023-05-17T04:10:35.114Z,98837.02
2023-05-17T04:11:40.430Z,98838.12
2023-05-17T04:12:45.739Z,98841.74
2023-05-17T04:13:51.023Z,98841.33
2023-05-17T04:14:56.369Z,98846.3
2023-05-17T04:16:01.674Z,98847.11
2023-05-17T04:17:07.047Z,98855.36
2023-05-17T04:18:12.494Z,98846.3
2023-05-17T04:19:18.269Z,98853.61
2023-05-17T04:20:23.897Z,98854.75
2023-05-17T04:21:29.292Z,98852.27
2023-05-17T04:22:34.594Z,98854.75
2023-05-17T04:23:39.896Z,98848.56
2023-05-17T04:24:45.201Z,98858.89
2023-05-17T04:25:50.496Z,98849.8
2023-05-17T04:26:59.230Z,98856.62
2023-05-17T04:28:07.425Z,98857.02
2023-05-17T04:29:12.715Z,98850.84
2023-05-17T04:30:17.987Z,98864.34
2023-05-17T04:31:23.297Z,98865.07
2023-05-17T04:32:28.731Z,98860.11
2023-05-17T04:33:34.265Z,98856.5
2023-05-17T04:34:39.607Z,98861.66
2023-05-17T04:35:44.959Z,98862.8
2023-05-17T04:36:50.332Z,98862.27
2023-05-17T04:37:55.608Z,98862.51
2023-05-17T04:39:00.919Z,98868.48
2023-05-17T04:40:06.229Z,98867.55
2023-05-17T04:41:11.589Z,98861.77
2023-05-17T04:42:16.989Z,98863.2
2023-05-17T04:43:22.291Z,98861.57
2023-05-17T04:44:27.609Z,98859.39
2023-05-17T04:45:33.022Z,98857.64
2023-05-17T04:46:38.352Z,98864.95
2023-05-17T04:48:49.347Z,98862.19
2023-05-17T04:49:54.949Z,98859.7
2023-05-17T04:51:00.266Z,98856.7
2023-05-17T04:52:07.579Z,98856.83
2023-05-17T04:53:12.937Z,98854.95
2023-05-17T04:54:18.243Z,98853.73
2023-05-17T04:55:23.551Z,98850.44
2023-05-17T04:56:28.860Z,98853.12
2023-05-17T04:57:34.261Z,98848.25
2023-05-17T04:58:39.579Z,98847.55
2023-05-17T04:59:44.891Z,98845.41
2023-05-17T05:00:50.468Z,98849.8
2023-05-17T05:01:55.761Z,98849.19
2023-05-17T05:03:01.205Z,98860.64
2023-05-17T05:04:07.124Z,98866.41
2023-05-17T05:05:12.988Z,98873.12
2023-05-17T05:06:18.329Z,98871.98
2023-05-17T05:07:23.704Z,98873.33
2023-05-17T05:08:29.162Z,98876.73
2023-05-17T05:09:34.553Z,98870.03
2023-05-17T05:10:39.926Z,98874.05
2023-05-17T05:11:45.295Z,98875.72
2023-05-17T05:12:50.741Z,98877.76
2023-05-17T05:13:56.181Z,98873.13
2023-05-17T05:15:02.565Z,98878.81
2023-05-17T05:16:07.908Z,98884.05
2023-05-17T05:17:13.349Z,98885.8
2023-05-17T05:18:18.937Z,98879.09
2023-05-17T05:19:24.715Z,98878.41
2023-05-17T05:20:30.068Z,98884.58
2023-05-17T05:21:35.398Z,98882.3
2023-05-17T05:22:40.850Z,98875.72
2023-05-17T05:23:46.247Z,98875.72
2023-05-17T05:24:51.681Z,98873.85
2023-05-17T05:25:57.044Z,98871.17
2023-05-17T05:27:03.125Z,98866.83
2023-05-17T05:28:11.171Z,98867.23
2023-05-17T05:29:16.540Z,98865.89
2023-05-17T05:30:21.950Z,98866.33
2023-05-17T05:31:27.353Z,98862.3
2023-05-17T05:32:33.095Z,98866.42
2023-05-17T05:33:42.463Z,98870.56
2023-05-17T05:34:50.478Z,98874.78
2023-05-17T05:35:56.291Z,98873.94
2023-05-17T05:37:01.629Z,98872.59
2023-05-17T05:38:06.984Z,98880.88
2023-05-17T05:39:12.320Z,98880.97
2023-05-17T05:40:17.683Z,98887.36
2023-05-17T05:41:24.175Z,98889.63
2023-05-17T05:42:29.616Z,98892.95
2023-05-17T05:43:34.953Z,98885.41
2023-05-17T05:44:40.242Z,98888
2023-05-17T05:45:46.672Z,98895.31
2023-05-17T05:46:51.997Z,98901.82
2023-05-17T05:47:57.476Z,98895.23
2023-05-17T05:49:03.152Z,98908.52
2023-05-17T05:50:08.586Z,98902.75
2023-05-17T05:51:13.923Z,98902.64
2023-05-17T05:52:19.317Z,98908.93
2023-05-17T05:53:24.661Z,98911.94
2023-05-17T05:54:30.077Z,98918.84
2023-05-17T05:55:35.438Z,98921.94
2023-05-17T05:56:40.808Z,98923.28
2023-05-17T05:57:46.154Z,98920.8
2023-05-17T05:58:51.574Z,98919.05
2023-05-17T05:59:56.967Z,98927.63
2023-05-17T06:01:04.035Z,98927.22
2023-05-17T06:02:10.803Z,98926.58
2023-05-17T06:03:16.120Z,98937.62
2023-05-17T06:04:44.365Z,98937.95
2023-05-17T06:05:50.590Z,98946.61
2023-05-17T06:06:56.430Z,98940.63
2023-05-17T06:08:01.811Z,98939.91
2023-05-17T06:09:07.174Z,98931.73
2023-05-17T06:10:12.510Z,98941.73
2023-05-17T06:11:17.816Z,98935.55
2023-05-17T06:12:23.171Z,98941.33
2023-05-17T06:13:28.469Z,98937.3
2023-05-17T06:14:33.968Z,98939.58
2023-05-17T06:15:39.365Z,98937.83
2023-05-17T06:16:44.780Z,98934.83
2023-05-17T06:17:50.307Z,98937.95
2023-05-17T06:18:55.846Z,98941.73
2023-05-17T06:20:01.430Z,98940.72
2023-05-17T06:21:06.972Z,98945.88
2023-05-17T06:22:12.316Z,98944.33
2023-05-17T06:23:17.644Z,98944.54
2023-05-17T06:24:23.010Z,98946.9
2023-05-17T06:25:28.420Z,98953.4
2023-05-17T06:26:33.817Z,98943.2
2023-05-17T06:27:39.195Z,98946.48
2023-05-17T06:28:44.613Z,98952.38
2023-05-17T06:29:49.959Z,98953.61
2023-05-17T06:30:55.339Z,98957.02
2023-05-17T06:32:00.622Z,98950.02
2023-05-17T06:33:06.128Z,98963.64
2023-05-17T06:34:11.762Z,98960.95
2023-05-17T06:35:17.518Z,98960.75
2023-05-17T06:36:22.832Z,98969
2023-05-17T06:37:29.410Z,98957.42
2023-05-17T06:38:34.733Z,98966.81
2023-05-17T06:39:40.071Z,98963.72
2023-05-17T06:40:46.685Z,98965.18
2023-05-17T06:41:52.029Z,98964.66
2023-05-17T06:42:57.329Z,98967.02
2023-05-17T06:44:02.717Z,98972.59
2023-05-17T06:45:08.070Z,98964.98
2023-05-17T06:46:13.376Z,98961.98
2023-05-17T06:47:18.821Z,98964.66
2023-05-17T06:48:24.613Z,98957.63
2023-05-17T06:49:30.139Z,98960.84
2023-05-17T06:50:35.435Z,98960.63
2023-05-17T06:51:40.743Z,98961.25
2023-05-17T06:52:46.705Z,98963.72
2023-05-17T06:53:52.198Z,98965.18
2023-05-17T06:54:57.671Z,98970.63
2023-05-17T06:56:05.221Z,98968.8
2023-05-17T06:57:10.540Z,98970.34
2023-05-17T06:58:15.933Z,98970.14
2023-05-17T06:59:21.331Z,98964.05
2023-05-17T07:00:26.787Z,98970.55
2023-05-17T07:01:32.712Z,98970.43
2023-05-17T07:02:38.132Z,98974.16
2023-05-17T07:03:43.757Z,98977.25
2023-05-17T07:04:49.327Z,98975.91
2023-05-17T07:05:54.711Z,98974.86
2023-05-17T07:07:00.227Z,98969.61
2023-05-17T07:08:05.562Z,98977.45
2023-05-17T07:09:10.877Z,98977.75
2023-05-17T07:10:16.185Z,98974.37
2023-05-17T07:11:21.533Z,98973.11
2023-05-17T07:12:26.847Z,98977.75
2023-05-17T07:13:32.235Z,98983.11
2023-05-17T07:14:37.526Z,98988.06
2023-05-17T07:15:42.846Z,98987.14
2023-05-17T07:16:48.240Z,98993.84
2023-05-17T07:17:53.596Z,98993.84
2023-05-17T07:18:59.313Z,98998.3
2023-05-17T07:20:04.836Z,99005.83
2023-05-17T07:21:10.722Z,99001.08
2023-05-17T07:22:16.011Z,99000.66
2023-05-17T07:23:21.375Z,99004.8
2023-05-17T07:24:26.750Z,99013.06
2023-05-17T07:25:32.374Z,99014.81
2023-05-17T07:26:37.736Z,99015.3
2023-05-17T07:27:43.045Z,99014.08
2023-05-17T07:28:48.460Z,99016.16
2023-05-17T07:29:56.095Z,99013.76
2023-05-17T07:31:01.472Z,99018.42
2023-05-17T07:32:06.830Z,99018.1
2023-05-17T07:33:14.419Z,99018.22
2023-05-17T07:34:19.862Z,99019.23
2023-05-17T07:35:25.442Z,99014.48
2023-05-17T07:36:31.161Z,99019.13
2023-05-17T07:37:36.593Z,99023.56
2023-05-17T07:38:41.920Z,99021.31
2023-05-17T07:39:47.346Z,99023.06
2023-05-17T07:40:52.722Z,99026.56
2023-05-17T07:42:00.236Z,99020.58
2023-05-17T07:43:09.275Z,99022.95
2023-05-17T07:44:14.577Z,99023.88
2023-05-17T07:45:20.042Z,99022.66
2023-05-17T07:46:25.519Z,99026.36
2023-05-17T07:47:31.216Z,99033.56
2023-05-17T07:48:39.379Z,99024.41
2023-05-17T07:49:45.220Z,99032.66
2023-05-17T07:50:51.714Z,99034.81
2023-05-17T07:51:57.250Z,99032.66
2023-05-17T07:53:02.632Z,99028.11
2023-05-17T07:54:07.985Z,99035.75
2023-05-17T07:55:15.410Z,99043.27
2023-05-17T07:56:22.182Z,99041.52
2023-05-17T07:57:27.549Z,99044.61
2023-05-17T07:58:32.918Z,99048.44
2023-05-17T07:59:38.285Z,99046.89
2023-05-17T08:00:43.752Z,99041.72
2023-05-17T08:01:51.519Z,99043.19
2023-05-17T08:02:57.014Z,99047.3
2023-05-17T08:04:02.539Z,99041.44
2023-05-17T08:05:07.946Z,99048.64
2023-05-17T08:06:13.442Z,99043.88
2023-05-17T08:07:18.835Z,99046.56
2023-05-17T08:08:24.250Z,99052.55
2023-05-17T08:09:29.754Z,99051.32
2023-05-17T08:10:35.147Z,99049.98
2023-05-17T08:11:40.608Z,99046.89
2023-05-17T08:12:46.044Z,99053.39
2023-05-17T08:13:51.449Z,99052.98
2023-05-17T08:14:56.834Z,99058.35
2023-05-17T08:16:13.931Z,99059.38
2023-05-17T08:17:19.933Z,99061.23
2023-05-17T08:18:28.140Z,99055.34
2023-05-17T08:19:34.046Z,99057.7
2023-05-17T08:20:39.554Z,99056.56
2023-05-17T08:21:45.049Z,99046.77
2023-05-17T08:22:50.583Z,99054.53
2023-05-17T08:23:55.902Z,99053.27
2023-05-17T08:25:04.091Z,99050.59
2023-05-17T08:26:09.400Z,99052.98
2023-05-17T08:27:15.770Z,99054.33
2023-05-17T08:28:21.114Z,99057.22
2023-05-17T08:29:26.465Z,99055.23
2023-05-17T08:30:32.088Z,99063.08
2023-05-17T08:31:37.455Z,99060.8
2023-05-17T08:32:43.114Z,99062.98
2023-05-17T08:33:48.940Z,99067.02
2023-05-17T08:34:54.615Z,99060.8
2023-05-17T08:35:59.978Z,99061.03
2023-05-17T08:37:05.524Z,99061.84
2023-05-17T08:38:10.884Z,99060.09
2023-05-17T08:39:16.212Z,99066.61
2023-05-17T08:40:21.998Z,99071.86
2023-05-17T08:41:27.699Z,99069.48
2023-05-17T08:42:33.304Z,99073.31
2023-05-17T08:43:38.650Z,99079.5
2023-05-17T08:44:43.993Z,99079.09
2023-05-17T08:45:49.428Z,99078.03
2023-05-17T08:46:54.793Z,99086.29
2023-05-17T08:48:00.187Z,99084.75
2023-05-17T08:49:05.899Z,99086.61
2023-05-17T08:50:11.360Z,99082.7
2023-05-17T08:51:16.719Z,99086
2023-05-17T08:52:22.043Z,99088.89
2023-05-17T08:53:27.619Z,99093.73
2023-05-17T08:54:33.011Z,99090.43
2023-05-17T08:55:38.326Z,99091.36
2023-05-17T08:56:45.461Z,99097.87
2023-05-17T08:57:50.793Z,99094.57
2023-05-17T08:58:58.896Z,99090.02
2023-05-17T09:00:04.354Z,99096.94
2023-05-17T09:01:09.721Z,99098.27
2023-05-17T09:02:15.132Z,99100.96
2023-05-17T09:03:21.175Z,99104.16
2023-05-17T09:04:26.841Z,99103.23
2023-05-17T09:05:32.363Z,99105.06
2023-05-17T09:06:37.748Z,99110.55
2023-05-17T09:07:43.222Z,99105.8
2023-05-17T09:08:48.705Z,99112.5
2023-05-17T09:09:53.988Z,99114.98
2023-05-17T09:10:59.318Z,99119.94
2023-05-17T09:12:04.674Z,99115.92
2023-05-17T09:13:10.242Z,99119.42
2023-05-17T09:14:15.602Z,99116.44
2023-05-17T09:15:21.033Z,99115.39
2023-05-17T09:16:26.391Z,99115.7
2023-05-17T09:17:31.738Z,99118.59
2023-05-17T09:18:37.589Z,99116.11
2023-05-17T09:19:43.551Z,99118.8
2023-05-17T09:20:49.437Z,99119.73
2023-05-17T09:21:54.737Z,99126.97
2023-05-17T09:23:00.054Z,99127.38
2023-05-17T09:24:09.690Z,99131.2
2023-05-17T09:25:15.016Z,99137.58
2023-05-17T09:26:20.312Z,99134.9
2023-05-17T09:27:25.629Z,99140.37
2023-05-17T09:28:30.973Z,99131.71
2023-05-17T09:29:36.336Z,99135.83
2023-05-17T09:30:41.687Z,99139.45
2023-05-17T09:31:46.993Z,99133.34
2023-05-17T09:32:52.423Z,99136.55
2023-05-17T09:33:58.252Z,99144.4
2023-05-17T09:35:03.658Z,99142.65
2023-05-17T09:36:09.011Z,99148.51
2023-05-17T09:37:14.321Z,99146.76
2023-05-17T09:38:19.622Z,99150.08
2023-05-17T09:39:25.988Z,99151.91
2023-05-17T09:40:31.270Z,99159.23
2023-05-17T09:41:36.598Z,99155.63
2023-05-17T09:42:41.907Z,99151.51
2023-05-17T09:43:47.227Z,99156.67
2023-05-17T09:44:52.533Z,99159.77
2023-05-17T09:45:57.864Z,99165.02
2023-05-17T09:47:03.168Z,99162.77
2023-05-17T09:48:08.653Z,99177.53
2023-05-17T09:49:16.677Z,99173.3
2023-05-17T09:50:25.450Z,99177.61
2023-05-17T09:51:31.455Z,99172.77
2023-05-17T09:52:36.791Z,99179.48
2023-05-17T09:53:42.186Z,99182.16
2023-05-17T09:54:47.497Z,99178.86
2023-05-17T09:55:52.786Z,99182.28
2023-05-17T09:56:58.111Z,99180.5
2023-05-17T09:58:03.434Z,99184.95
2023-05-17T09:59:08.825Z,99182.06
2023-05-17T10:00:14.141Z,99187.72
2023-05-17T10:01:19.448Z,99187.2
2023-05-17T10:02:24.930Z,99184.11
2023-05-17T10:03:30.525Z,99189.88
2023-05-17T10:04:36.041Z,99188.04
2023-05-17T10:05:41.864Z,99195.89
2023-05-17T10:06:52.786Z,99188.97
2023-05-17T10:07:58.144Z,99195.89
2023-05-17T10:09:03.547Z,99201.25
2023-05-17T10:10:08.897Z,99204.34
2023-05-17T10:11:14.219Z,99201.75
2023-05-17T10:12:19.523Z,99202.19
2023-05-17T10:13:25.452Z,99205.06
2023-05-17T10:14:30.907Z,99201.98
2023-05-17T10:15:36.509Z,99204.55
2023-05-17T10:16:41.893Z,99202.06
2023-05-17T10:17:47.311Z,99203.09
2023-05-17T10:18:53.079Z,99197.31
2023-05-17T10:19:59.037Z,99201.34
2023-05-17T10:21:04.733Z,99202.67
2023-05-17T10:22:24.005Z,99199.59
2023-05-17T10:23:29.495Z,99201.24
2023-05-17T10:24:34.858Z,99206
2023-05-17T10:25:40.421Z,99207.75
2023-05-17T10:26:45.932Z,99204.03
2023-05-17T10:27:51.463Z,99202.7
2023-05-17T10:28:56.875Z,99210.22
2023-05-17T10:30:02.296Z,99210.11
2023-05-17T10:31:07.631Z,99203.11
2023-05-17T10:32:13.107Z,99210.52
2023-05-17T10:33:18.631Z,99212.09
2023-05-17T10:34:24.352Z,99212.17
2023-05-17T10:35:30.276Z,99208.77
2023-05-17T10:36:35.975Z,99203.19
2023-05-17T10:37:41.385Z,99208.55
2023-05-17T10:38:46.821Z,99211.97
2023-05-17T10:39:52.224Z,99219.09
2023-05-17T10:40:57.560Z,99216.81
2023-05-17T10:42:15.699Z,99218.67
2023-05-17T10:43:21.021Z,99215.45
2023-05-17T10:44:26.315Z,99222.16
2023-05-17T10:45:31.951Z,99217.86
2023-05-17T10:46:37.256Z,99226.84
2023-05-17T10:47:42.833Z,99230.86
2023-05-17T10:48:48.365Z,99236.23
2023-05-17T10:49:53.747Z,99237.57
2023-05-17T10:51:03.391Z,99242
2023-05-17T10:52:08.707Z,99236.02
2023-05-17T10:53:13.996Z,99233.94
2023-05-17T10:54:19.275Z,99240.34
2023-05-17T10:55:24.633Z,99238.99
2023-05-17T10:56:30.283Z,99235.38
2023-05-17T10:57:51.562Z,99242.49
2023-05-17T10:58:56.958Z,99239.92
2023-05-17T11:00:02.317Z,99239.92
2023-05-17T11:01:07.673Z,99242.72
2023-05-17T11:02:13.004Z,99239.72
2023-05-17T11:03:18.969Z,99244.06
2023-05-17T11:04:24.409Z,99244.47
2023-05-17T11:05:30.966Z,99239.11
2023-05-17T11:06:36.994Z,99247.16
2023-05-17T11:07:42.583Z,99241.25
2023-05-17T11:08:47.878Z,99247.23
2023-05-17T11:09:53.166Z,99246.94
2023-05-17T11:10:58.533Z,99241.66
2023-05-17T11:12:03.864Z,99245.6
2023-05-17T11:13:09.192Z,99246.09
2023-05-17T11:14:14.515Z,99248.69
2023-05-17T11:15:20.107Z,99246.81
2023-05-17T11:16:25.568Z,99250.55
2023-05-17T11:17:30.965Z,99246.32
2023-05-17T11:18:44.020Z,99246.32
2023-05-17T11:19:49.748Z,99254.14
2023-05-17T11:20:55.836Z,99248.56
2023-05-17T11:22:01.434Z,99248.77
2023-05-17T11:23:06.759Z,99245.55
2023-05-17T11:24:12.054Z,99250.12
2023-05-17T11:25:17.329Z,99247.66
2023-05-17T11:26:22.722Z,99249.7
2023-05-17T11:27:28.057Z,99242.59
2023-05-17T11:28:33.380Z,99245.14
2023-05-17T11:29:40.364Z,99246.81
2023-05-17T11:30:45.760Z,99253.08
2023-05-17T11:31:51.046Z,99253.59
2023-05-17T11:32:56.459Z,99256.41
2023-05-17T11:34:01.885Z,99254.14
2023-05-17T11:35:07.236Z,99254.42
2023-05-17T11:36:12.518Z,99260.96
2023-05-17T11:37:17.976Z,99255.27
2023-05-17T11:38:23.262Z,99256.53
2023-05-17T11:39:28.591Z,99258.03
2023-05-17T11:40:33.921Z,99259.62
2023-05-17T11:41:39.228Z,99257.73
2023-05-17T11:42:44.503Z,99261.56
2023-05-17T11:43:49.839Z,99262.98
2023-05-17T11:44:55.154Z,99258.88
2023-05-17T11:46:00.465Z,99259.9
2023-05-17T11:47:05.828Z,99266.84
2023-05-17T11:48:11.522Z,99265.5
2023-05-17T11:49:35.498Z,99263.92
2023-05-17T11:50:41.227Z,99264
2023-05-17T11:51:46.552Z,99268.27
2023-05-17T11:52:51.892Z,99266.27
2023-05-17T11:53:57.486Z,99272.09
2023-05-17T11:55:02.881Z,99272.7
2023-05-17T11:56:08.180Z,99262.41
2023-05-17T11:57:13.518Z,99265.5
2023-05-17T11:58:18.824Z,99270.88
2023-05-17T11:59:24.159Z,99269.13
2023-05-17T12:00:30.280Z,99268.19
2023-05-17T12:01:35.827Z,99266.08
2023-05-17T12:02:41.204Z,99272.7
2023-05-17T12:03:46.584Z,99267.2
2023-05-17T12:04:51.882Z,99271.8
2023-05-17T12:05:57.347Z,99269.13
2023-05-17T12:07:02.772Z,99274.53
2023-05-17T12:08:08.112Z,99270.3
2023-05-17T12:09:13.422Z,99275.88
2023-05-17T12:10:18.846Z,99273.19
2023-05-17T12:11:24.159Z,99274.53
2023-05-17T12:12:29.504Z,99272.98
2023-05-17T12:13:34.807Z,99274.12
2023-05-17T12:14:40.110Z,99279.48
2023-05-17T12:15:45.418Z,99271.56
2023-05-17T12:16:50.741Z,99282.17
2023-05-17T12:17:56.209Z,99279.48
2023-05-17T12:19:02.039Z,99275.66
2023-05-17T12:20:08.007Z,99279.08
2023-05-17T12:21:13.593Z,99272.28
2023-05-17T12:22:18.903Z,99279.08
2023-05-17T12:23:24.190Z,99274.73
2023-05-17T12:24:29.568Z,99279.48
2023-05-17T12:25:34.917Z,99275.99
2023-05-17T12:26:40.242Z,99279.6
2023-05-17T12:27:45.703Z,99280.2
2023-05-17T12:28:51.028Z,99283.11
2023-05-17T12:29:56.343Z,99283.3
2023-05-17T12:31:01.627Z,99279.39
2023-05-17T12:32:06.976Z,99285.05
2023-05-17T12:33:12.506Z,99286.59
2023-05-17T12:34:18.171Z,99286.8
2023-05-17T12:35:23.557Z,99284.55
2023-05-17T12:36:28.874Z,99286.39
2023-05-17T12:37:34.216Z,99290.61
2023-05-17T12:38:39.529Z,99290.94
2023-05-17T12:39:44.855Z,99294.34
2023-05-17T12:40:50.169Z,99305.28
2023-05-17T12:41:55.485Z,99305.28
2023-05-17T12:43:00.812Z,99306.7
2023-05-17T12:44:16.933Z,99313.22
2023-05-17T12:45:22.420Z,99314.55
2023-05-17T12:46:27.713Z,99312.39
2023-05-17T12:47:33.118Z,99314.55
2023-05-17T12:48:38.539Z,99319.7
2023-05-17T12:49:44.012Z,99329.09
2023-05-17T12:50:49.292Z,99330.23
2023-05-17T12:51:54.616Z,99338.81
2023-05-17T12:52:59.938Z,99334.45
2023-05-17T12:54:05.247Z,99337.47
2023-05-17T12:55:10.542Z,99350.88
2023-05-17T12:56:15.943Z,99344.99